createdAt,value
2022-10-24T00:00:00.298Z,889.4
2022-10-24T00:01:00.397Z,889.4
2022-10-24T00:02:00.301Z,889.3
2022-10-24T00:03:00.580Z,889.3
2022-10-24T00:04:00.431Z,889.3
2022-10-24T00:05:00.281Z,889.3
2022-10-24T00:06:00.304Z,889.3
2022-10-24T00:07:00.317Z,889.3
2022-10-24T00:08:00.283Z,889.3
2022-10-24T00:09:00.445Z,889.3
2022-10-24T00:10:00.297Z,889.3
2022-10-24T00:11:00.309Z,889.2
2022-10-24T00:12:00.305Z,889.2
2022-10-24T00:13:00.290Z,889.2
2022-10-24T00:14:00.369Z,889.2
2022-10-24T00:15:00.498Z,889.2
2022-10-24T00:16:00.317Z,889.2
2022-10-24T00:17:00.381Z,889.2
2022-10-24T00:18:00.374Z,889.2
2022-10-24T00:19:00.315Z,889.1
2022-10-24T00:20:00.515Z,889.1
2022-10-24T00:21:00.350Z,889.1
2022-10-24T00:22:00.290Z,889.1
2022-10-24T00:23:00.294Z,889.1
2022-10-24T00:24:00.296Z,889.1
2022-10-24T00:25:00.300Z,889.2
2022-10-24T00:26:00.288Z,889.1
2022-10-24T00:27:00.619Z,889.1
2022-10-24T00:28:00.300Z,889.1
2022-10-24T00:30:00.318Z,889.1
2022-10-24T00:31:00.299Z,889.0
2022-10-24T00:32:00.311Z,889.0
2022-10-24T00:33:00.416Z,889.1
2022-10-24T00:34:00.280Z,889.1
2022-10-24T00:35:00.328Z,889.1
2022-10-24T00:36:00.308Z,889.1
2022-10-24T00:37:00.299Z,889.0
2022-10-24T00:38:00.301Z,889.0
2022-10-24T00:39:00.440Z,889.0
2022-10-24T00:40:00.279Z,889.0
2022-10-24T00:41:00.291Z,889.0
2022-10-24T00:42:00.282Z,889.0
2022-10-24T00:43:00.305Z,889.0
2022-10-24T00:44:00.288Z,889.0
2022-10-24T00:45:00.423Z,889.0
2022-10-24T00:46:00.304Z,889.0
2022-10-24T00:47:00.327Z,889.0
2022-10-24T00:48:00.277Z,889.0
2022-10-24T00:49:00.391Z,889.0
2022-10-24T00:50:00.352Z,889.0
2022-10-24T00:51:00.481Z,889.0
2022-10-24T00:52:00.439Z,889.0
2022-10-24T00:53:00.388Z,888.9
2022-10-24T00:54:00.280Z,889.0
2022-10-24T00:55:00.389Z,889.0
2022-10-24T00:56:00.299Z,889.0
2022-10-24T00:57:00.471Z,889.0
2022-10-24T00:58:00.291Z,889.0
2022-10-24T00:59:00.300Z,889.0
2022-10-24T01:00:00.302Z,889.0
2022-10-24T01:01:00.452Z,889.0
2022-10-24T01:02:00.275Z,889.0
2022-10-24T01:03:00.437Z,889.0
2022-10-24T01:04:00.319Z,889.0
2022-10-24T01:05:00.283Z,889.0
2022-10-24T01:06:00.307Z,889.0
2022-10-24T01:07:00.435Z,889.0
2022-10-24T01:08:00.315Z,889.0
2022-10-24T01:09:00.456Z,889.0
2022-10-24T01:10:00.304Z,889.0
2022-10-24T01:11:00.309Z,889.0
2022-10-24T01:12:00.292Z,888.9
2022-10-24T01:13:00.291Z,888.9
2022-10-24T01:14:00.330Z,888.9
2022-10-24T01:15:00.502Z,889.0
2022-10-24T01:16:00.369Z,889.0
2022-10-24T01:17:00.344Z,889.0
2022-10-24T01:18:00.331Z,889.0
2022-10-24T01:19:00.306Z,888.9
2022-10-24T01:20:00.289Z,888.9
2022-10-24T01:21:00.526Z,889.0
2022-10-24T01:22:00.309Z,888.9
2022-10-24T01:23:00.326Z,888.9
2022-10-24T01:24:00.293Z,889.0
2022-10-24T01:25:00.304Z,889.0
2022-10-24T01:26:00.288Z,889.0
2022-10-24T01:27:00.572Z,889.0
2022-10-24T01:28:00.320Z,889.1
2022-10-24T01:29:00.295Z,889.1
2022-10-24T01:30:00.282Z,889.1
2022-10-24T01:31:00.276Z,889.1
2022-10-24T01:32:00.297Z,889.1
2022-10-24T01:33:00.443Z,889.1
2022-10-24T01:34:00.348Z,889.0
2022-10-24T01:35:00.323Z,889.0
2022-10-24T01:36:00.299Z,889.0
2022-10-24T01:37:00.408Z,889.0
2022-10-24T01:38:00.423Z,889.0
2022-10-24T01:39:00.371Z,889.0
2022-10-24T01:40:00.766Z,889.0
2022-10-24T01:41:00.286Z,889.0
2022-10-24T01:42:00.294Z,889.0
2022-10-24T01:43:00.297Z,889.0
2022-10-24T01:44:00.295Z,889.0
2022-10-24T01:45:00.473Z,889.0
2022-10-24T01:46:00.295Z,889.0
2022-10-24T01:47:00.281Z,888.9
2022-10-24T01:48:00.322Z,888.9
2022-10-24T01:49:00.319Z,888.9
2022-10-24T01:50:00.308Z,888.9
2022-10-24T01:51:00.409Z,888.9
2022-10-24T01:52:00.380Z,888.9
2022-10-24T01:53:00.332Z,888.9
2022-10-24T01:54:00.311Z,888.9
2022-10-24T01:55:00.304Z,888.9
2022-10-24T01:56:00.349Z,888.9
2022-10-24T01:57:00.528Z,889.0
2022-10-24T01:58:00.345Z,889.0
2022-10-24T01:59:00.373Z,889.0
2022-10-24T02:00:00.322Z,889.0
2022-10-24T02:01:00.358Z,889.0
2022-10-24T02:02:00.278Z,889.0
2022-10-24T02:03:00.463Z,889.0
2022-10-24T02:04:00.305Z,889.1
2022-10-24T02:05:00.292Z,889.0
2022-10-24T02:06:00.306Z,889.1
2022-10-24T02:07:00.337Z,889.0
2022-10-24T02:08:00.333Z,889.0
2022-10-24T02:09:00.553Z,889.0
2022-10-24T02:10:00.306Z,889.0
2022-10-24T02:11:00.294Z,889.0
2022-10-24T02:12:00.302Z,889.0
2022-10-24T02:13:00.290Z,889.0
2022-10-24T02:14:00.275Z,889.0
2022-10-24T02:15:00.448Z,889.0
2022-10-24T02:16:00.306Z,889.0
2022-10-24T02:17:00.273Z,889.0
2022-10-24T02:18:00.277Z,889.0
2022-10-24T02:19:00.294Z,889.0
2022-10-24T02:20:00.282Z,889.1
2022-10-24T02:21:00.513Z,889.1
2022-10-24T02:22:00.389Z,889.1
2022-10-24T02:23:00.284Z,889.0
2022-10-24T02:24:00.279Z,889.1
2022-10-24T02:25:00.281Z,889.1
2022-10-24T02:26:00.296Z,889.0
2022-10-24T02:27:00.475Z,889.0
2022-10-24T02:28:00.280Z,889.0
2022-10-24T02:29:00.303Z,889.0
2022-10-24T02:30:00.313Z,889.0
2022-10-24T02:31:00.304Z,889.0
2022-10-24T02:32:00.314Z,889.0
2022-10-24T02:33:00.451Z,889.0
2022-10-24T02:34:00.465Z,889.0
2022-10-24T02:35:00.301Z,888.9
2022-10-24T02:36:00.280Z,888.9
2022-10-24T02:37:00.313Z,888.9
2022-10-24T02:38:00.669Z,888.9
2022-10-24T02:39:00.417Z,888.9
2022-10-24T02:40:00.292Z,888.9
2022-10-24T02:41:00.303Z,888.9
2022-10-24T02:42:00.312Z,888.9
2022-10-24T02:43:00.345Z,888.9
2022-10-24T02:44:00.362Z,888.9
2022-10-24T02:45:00.511Z,888.9
2022-10-24T02:46:00.305Z,888.9
2022-10-24T02:47:00.291Z,888.9
2022-10-24T02:48:00.285Z,888.9
2022-10-24T02:49:00.294Z,888.9
2022-10-24T02:50:00.291Z,888.9
2022-10-24T02:51:00.438Z,888.9
2022-10-24T02:52:00.306Z,888.8
2022-10-24T02:53:00.457Z,888.8
2022-10-24T02:54:00.270Z,888.8
2022-10-24T02:55:00.344Z,888.8
2022-10-24T02:56:00.340Z,888.8
2022-10-24T02:57:00.435Z,888.9
2022-10-24T02:58:00.290Z,888.8
2022-10-24T02:59:00.344Z,888.8
2022-10-24T03:00:00.375Z,888.8
2022-10-24T03:01:00.413Z,888.8
2022-10-24T03:02:00.303Z,888.8
2022-10-24T03:03:00.551Z,888.8
2022-10-24T03:04:00.291Z,888.8
2022-10-24T03:05:00.275Z,888.8
2022-10-24T03:06:00.293Z,888.8
2022-10-24T03:07:00.304Z,888.8
2022-10-24T03:08:00.674Z,888.8
2022-10-24T03:09:00.375Z,888.8
2022-10-24T03:10:00.297Z,888.8
2022-10-24T03:11:00.307Z,888.7
2022-10-24T03:12:00.271Z,888.7
2022-10-24T03:13:00.273Z,888.7
2022-10-24T03:14:00.290Z,888.7
2022-10-24T03:15:00.486Z,888.7
2022-10-24T03:16:00.339Z,888.7
2022-10-24T03:17:00.333Z,888.7
2022-10-24T03:18:00.306Z,888.7
2022-10-24T03:19:00.358Z,888.7
2022-10-24T03:20:00.388Z,888.7
2022-10-24T03:21:00.565Z,888.7
2022-10-24T03:22:00.296Z,888.7
2022-10-24T03:23:00.321Z,888.7
2022-10-24T03:24:00.365Z,888.7
2022-10-24T03:25:00.296Z,888.7
2022-10-24T03:26:00.275Z,888.7
2022-10-24T03:27:00.365Z,888.7
2022-10-24T03:28:00.292Z,888.7
2022-10-24T03:29:00.287Z,888.7
2022-10-24T03:30:00.321Z,888.6
2022-10-24T03:31:00.295Z,888.6
2022-10-24T03:32:00.305Z,888.6
2022-10-24T03:33:00.392Z,888.6
2022-10-24T03:34:00.295Z,888.6
2022-10-24T03:35:00.276Z,888.6
2022-10-24T03:36:00.302Z,888.6
2022-10-24T03:37:00.331Z,888.6
2022-10-24T03:38:00.407Z,888.6
2022-10-24T03:39:00.490Z,888.6
2022-10-24T03:40:00.511Z,888.6
2022-10-24T03:41:00.349Z,888.6
2022-10-24T03:42:00.309Z,888.6
2022-10-24T03:43:00.310Z,888.6
2022-10-24T03:44:00.291Z,888.6
2022-10-24T03:45:00.502Z,888.6
2022-10-24T03:46:00.286Z,888.6
2022-10-24T03:47:00.302Z,888.6
2022-10-24T03:48:00.287Z,888.6
2022-10-24T03:50:00.296Z,888.6
2022-10-24T03:51:00.550Z,888.6
2022-10-24T03:52:00.334Z,888.6
2022-10-24T03:53:00.409Z,888.6
2022-10-24T03:54:00.323Z,888.6
2022-10-24T03:55:00.362Z,888.6
2022-10-24T03:56:00.330Z,888.6
2022-10-24T03:57:00.443Z,888.6
2022-10-24T03:58:00.305Z,888.6
2022-10-24T03:59:00.277Z,888.6
2022-10-24T04:00:00.289Z,888.6
2022-10-24T04:01:00.434Z,888.6
2022-10-24T04:02:00.380Z,888.6
2022-10-24T04:03:00.519Z,888.7
2022-10-24T04:04:00.315Z,888.7
2022-10-24T04:05:00.309Z,888.7
2022-10-24T04:06:00.483Z,888.7
2022-10-24T04:07:00.381Z,888.7
2022-10-24T04:08:00.428Z,888.6
2022-10-24T04:09:00.473Z,888.7
2022-10-24T04:10:00.778Z,888.7
2022-10-24T04:11:00.423Z,888.7
2022-10-24T04:12:00.276Z,888.8
2022-10-24T04:13:00.295Z,888.8
2022-10-24T04:15:03.959Z,888.9
2022-10-24T04:16:00.325Z,888.8
2022-10-24T04:17:00.287Z,888.9
2022-10-24T04:18:00.331Z,888.9
2022-10-24T04:19:00.318Z,888.9
2022-10-24T04:20:00.329Z,888.9
2022-10-24T04:21:00.552Z,888.9
2022-10-24T04:22:00.299Z,889.0
2022-10-24T04:23:02.403Z,889.0
2022-10-24T04:24:00.360Z,889.0
2022-10-24T04:25:00.444Z,889.0
2022-10-24T04:26:00.353Z,889.1
2022-10-24T04:27:00.625Z,889.0
2022-10-24T04:28:00.300Z,889.1
2022-10-24T04:29:00.316Z,889.0
2022-10-24T04:30:00.323Z,889.0
2022-10-24T04:31:00.440Z,889.0
2022-10-24T04:32:00.338Z,889.1
2022-10-24T04:33:00.480Z,889.1
2022-10-24T04:34:00.357Z,889.1
2022-10-24T04:35:00.274Z,889.1
2022-10-24T04:36:00.296Z,889.1
2022-10-24T04:37:00.314Z,889.1
2022-10-24T04:38:00.310Z,889.2
2022-10-24T04:40:00.426Z,889.2
2022-10-24T04:41:00.310Z,889.2
2022-10-24T04:42:00.288Z,889.2
2022-10-24T04:43:00.293Z,889.2
2022-10-24T04:44:00.346Z,889.2
2022-10-24T04:45:00.699Z,889.2
2022-10-24T04:46:00.367Z,889.2
2022-10-24T04:47:00.331Z,889.2
2022-10-24T04:48:00.317Z,889.2
2022-10-24T04:49:00.283Z,889.3
2022-10-24T04:50:00.284Z,889.2
2022-10-24T04:51:00.477Z,889.3
2022-10-24T04:52:00.304Z,889.3
2022-10-24T04:53:00.294Z,889.3
2022-10-24T04:54:00.321Z,889.3
2022-10-24T04:55:00.446Z,889.3
2022-10-24T04:56:00.300Z,889.3
2022-10-24T04:57:00.560Z,889.3
2022-10-24T04:58:00.290Z,889.3
2022-10-24T04:59:00.290Z,889.4
2022-10-24T05:00:00.292Z,889.4
2022-10-24T05:01:00.359Z,889.4
2022-10-24T05:02:00.329Z,889.4
2022-10-24T05:03:00.480Z,889.4
2022-10-24T05:05:00.321Z,889.4
2022-10-24T05:06:00.331Z,889.4
2022-10-24T05:07:00.320Z,889.4
2022-10-24T05:08:00.390Z,889.4
2022-10-24T05:09:00.534Z,889.4
2022-10-24T05:10:00.567Z,889.3
2022-10-24T05:11:00.287Z,889.3
2022-10-24T05:12:00.298Z,889.4
2022-10-24T05:13:00.306Z,889.3
2022-10-24T05:14:00.290Z,889.3
2022-10-24T05:15:00.703Z,889.3
2022-10-24T05:16:00.293Z,889.3
2022-10-24T05:17:00.303Z,889.3
2022-10-24T05:18:00.307Z,889.3
2022-10-24T05:19:00.279Z,889.3
2022-10-24T05:20:00.281Z,889.3
2022-10-24T05:21:00.445Z,889.3
2022-10-24T05:22:00.360Z,889.3
2022-10-24T05:23:00.306Z,889.3
2022-10-24T05:24:00.297Z,889.3
2022-10-24T05:25:00.550Z,889.3
2022-10-24T05:26:00.532Z,889.3
2022-10-24T05:27:00.420Z,889.3
2022-10-24T05:28:00.309Z,889.3
2022-10-24T05:29:00.429Z,889.3
2022-10-24T05:30:00.325Z,889.3
2022-10-24T05:31:00.309Z,889.3
2022-10-24T05:32:00.375Z,889.2
2022-10-24T05:33:00.497Z,889.2
2022-10-24T05:34:00.354Z,889.2
2022-10-24T05:35:00.315Z,889.3
2022-10-24T05:36:00.298Z,889.3
2022-10-24T05:37:00.274Z,889.3
2022-10-24T05:38:00.333Z,889.3
2022-10-24T05:39:00.458Z,889.3
2022-10-24T05:40:00.308Z,889.3
2022-10-24T05:41:00.425Z,889.3
2022-10-24T05:42:00.299Z,889.3
2022-10-24T05:43:00.286Z,889.3
2022-10-24T05:44:00.276Z,889.3
2022-10-24T05:45:00.398Z,889.2
2022-10-24T05:46:00.291Z,889.2
2022-10-24T05:47:00.316Z,889.2
2022-10-24T05:48:00.341Z,889.2
2022-10-24T05:49:00.351Z,889.2
2022-10-24T05:50:00.347Z,889.2
2022-10-24T05:51:00.403Z,889.2
2022-10-24T05:52:00.346Z,889.2
2022-10-24T05:53:00.403Z,889.2
2022-10-24T05:54:00.398Z,889.2
2022-10-24T05:55:07.263Z,889.2
2022-10-24T05:56:00.412Z,889.2
2022-10-24T05:57:00.472Z,889.2
2022-10-24T05:58:00.311Z,889.2
2022-10-24T05:59:00.403Z,889.2
2022-10-24T06:00:00.292Z,889.2
2022-10-24T06:01:00.410Z,889.2
2022-10-24T06:02:00.414Z,889.2
2022-10-24T06:03:00.419Z,889.2
2022-10-24T06:04:00.312Z,889.2
2022-10-24T06:05:00.284Z,889.2
2022-10-24T06:06:00.309Z,889.2
2022-10-24T06:07:00.329Z,889.2
2022-10-24T06:08:00.308Z,889.2
2022-10-24T06:09:00.450Z,889.2
2022-10-24T06:10:00.386Z,889.2
2022-10-24T06:11:00.429Z,889.2
2022-10-24T06:12:00.361Z,889.3
2022-10-24T06:13:00.333Z,889.3
2022-10-24T06:14:00.344Z,889.2
2022-10-24T06:15:00.469Z,889.2
2022-10-24T06:16:00.358Z,889.2
2022-10-24T06:17:00.282Z,889.2
2022-10-24T06:18:00.302Z,889.2
2022-10-24T06:19:00.292Z,889.2
2022-10-24T06:20:00.312Z,889.1
2022-10-24T06:21:00.460Z,889.1
2022-10-24T06:22:00.271Z,889.1
2022-10-24T06:23:00.407Z,889.2
2022-10-24T06:24:00.303Z,889.2
2022-10-24T06:25:00.303Z,889.2
2022-10-24T06:26:00.394Z,889.2
2022-10-24T06:27:00.468Z,889.2
2022-10-24T06:28:00.330Z,889.2
2022-10-24T06:29:00.343Z,889.2
2022-10-24T06:30:00.306Z,889.2
2022-10-24T06:31:00.299Z,889.2
2022-10-24T06:32:00.277Z,889.3
2022-10-24T06:33:00.641Z,889.3
2022-10-24T06:34:00.294Z,889.3
2022-10-24T06:35:00.273Z,889.2
2022-10-24T06:36:00.280Z,889.2
2022-10-24T06:37:00.356Z,889.2
2022-10-24T06:38:00.390Z,889.2
2022-10-24T06:39:00.519Z,889.2
2022-10-24T06:40:00.302Z,889.3
2022-10-24T06:41:00.357Z,889.3
2022-10-24T06:42:00.406Z,889.3
2022-10-24T06:43:00.353Z,889.3
2022-10-24T06:44:00.324Z,889.3
2022-10-24T06:46:00.355Z,889.4
2022-10-24T06:47:00.306Z,889.4
2022-10-24T06:48:00.281Z,889.4
2022-10-24T06:49:00.276Z,889.3
2022-10-24T06:50:00.311Z,889.4
2022-10-24T06:51:00.898Z,889.4
2022-10-24T06:52:00.280Z,889.3
2022-10-24T06:53:00.332Z,889.3
2022-10-24T06:54:00.376Z,889.3
2022-10-24T06:55:00.296Z,889.3
2022-10-24T06:56:00.388Z,889.3
2022-10-24T06:57:00.700Z,889.3
2022-10-24T06:58:00.276Z,889.2
2022-10-24T06:59:00.317Z,889.3
2022-10-24T07:00:00.337Z,889.3
2022-10-24T07:01:00.343Z,889.3
2022-10-24T07:02:03.320Z,889.3
2022-10-24T07:03:00.466Z,889.3
2022-10-24T07:04:00.357Z,889.3
2022-10-24T07:05:00.329Z,889.3
2022-10-24T07:06:00.294Z,889.3
2022-10-24T07:07:00.292Z,889.3
2022-10-24T07:08:00.375Z,889.3
2022-10-24T07:09:00.521Z,889.3
2022-10-24T07:10:00.333Z,889.3
2022-10-24T07:11:00.409Z,889.3
2022-10-24T07:12:00.501Z,889.3
2022-10-24T07:13:00.302Z,889.3
2022-10-24T07:14:00.999Z,889.3
2022-10-24T07:15:00.425Z,889.3
2022-10-24T07:16:00.321Z,889.3
2022-10-24T07:17:00.301Z,889.3
2022-10-24T07:18:00.303Z,889.3
2022-10-24T07:19:00.299Z,889.3
2022-10-24T07:20:00.281Z,889.3
2022-10-24T07:21:00.435Z,889.3
2022-10-24T07:22:00.301Z,889.3
2022-10-24T07:23:00.307Z,889.3
2022-10-24T07:24:00.302Z,889.3
2022-10-24T07:25:00.296Z,889.3
2022-10-24T07:26:00.293Z,889.2
2022-10-24T07:27:00.469Z,889.2
2022-10-24T07:28:00.317Z,889.2
2022-10-24T07:29:00.294Z,889.2
2022-10-24T07:30:03.143Z,889.2
2022-10-24T07:31:00.309Z,889.2
2022-10-24T07:32:00.298Z,889.2
2022-10-24T07:33:00.509Z,889.2
2022-10-24T07:34:00.289Z,889.2
2022-10-24T07:35:00.305Z,889.2
2022-10-24T07:36:00.308Z,889.2
2022-10-24T07:37:00.353Z,889.2
2022-10-24T07:38:00.337Z,889.2
2022-10-24T07:39:00.469Z,889.2
2022-10-24T07:40:00.298Z,889.2
2022-10-24T07:41:00.306Z,889.2
2022-10-24T07:42:00.996Z,889.2
2022-10-24T07:43:00.307Z,889.2
2022-10-24T07:44:00.306Z,889.2
2022-10-24T07:45:00.651Z,889.2
2022-10-24T07:47:00.303Z,889.2
2022-10-24T07:48:00.313Z,889.1
2022-10-24T07:49:00.301Z,889.1
2022-10-24T07:50:00.302Z,889.1
2022-10-24T07:51:00.499Z,889.1
2022-10-24T07:52:00.288Z,889.1
2022-10-24T07:53:00.342Z,889.1
2022-10-24T07:54:00.289Z,889.1
2022-10-24T07:55:00.290Z,889.1
2022-10-24T07:56:00.295Z,889.0
2022-10-24T07:57:00.443Z,889.0
2022-10-24T07:58:00.406Z,889.0
2022-10-24T07:59:03.006Z,889.0
2022-10-24T08:00:00.315Z,888.9
2022-10-24T08:01:00.392Z,888.9
2022-10-24T08:02:00.301Z,888.9
2022-10-24T08:03:00.429Z,888.8
2022-10-24T08:04:00.391Z,888.8
2022-10-24T08:05:00.329Z,888.9
2022-10-24T08:06:00.369Z,888.9
2022-10-24T08:07:00.336Z,888.9
2022-10-24T08:08:21.638Z,888.9
2022-10-24T08:09:00.508Z,888.9
2022-10-24T08:10:00.320Z,888.9
2022-10-24T08:12:00.291Z,888.8
2022-10-24T08:13:00.309Z,888.8
2022-10-24T08:14:00.489Z,888.8
2022-10-24T08:15:00.526Z,888.8
2022-10-24T08:16:00.307Z,888.8
2022-10-24T08:17:00.291Z,888.8
2022-10-24T08:18:00.311Z,888.7
2022-10-24T08:19:00.383Z,888.8
2022-10-24T08:20:00.512Z,888.7
2022-10-24T08:21:00.514Z,888.7
2022-10-24T08:22:00.451Z,888.7
2022-10-24T08:23:00.417Z,888.7
2022-10-24T08:24:00.320Z,888.7
2022-10-24T08:25:00.294Z,888.7
2022-10-24T08:26:00.361Z,888.7
2022-10-24T08:27:00.436Z,888.7
2022-10-24T08:28:01.822Z,888.7
2022-10-24T08:29:00.728Z,888.7
2022-10-24T08:30:00.464Z,888.7
2022-10-24T08:31:00.288Z,888.7
2022-10-24T08:32:00.277Z,888.7
2022-10-24T08:33:00.460Z,888.7
2022-10-24T08:34:00.293Z,888.7
2022-10-24T08:35:00.304Z,888.7
2022-10-24T08:36:00.366Z,888.7
2022-10-24T08:37:00.360Z,888.7
2022-10-24T08:38:00.347Z,888.7
2022-10-24T08:39:00.446Z,888.7
2022-10-24T08:40:00.455Z,888.7
2022-10-24T08:41:00.361Z,888.7
2022-10-24T08:42:00.515Z,888.7
2022-10-24T08:43:00.286Z,888.6
2022-10-24T08:44:00.428Z,888.6
2022-10-24T08:45:00.403Z,888.5
2022-10-24T08:46:00.378Z,888.6
2022-10-24T08:47:00.356Z,888.6
2022-10-24T08:48:00.391Z,888.6
2022-10-24T08:49:00.362Z,888.5
2022-10-24T08:50:00.596Z,888.5
2022-10-24T08:51:00.552Z,888.6
2022-10-24T08:52:00.475Z,888.6
2022-10-24T08:53:00.305Z,888.5
2022-10-24T08:54:00.295Z,888.5
2022-10-24T08:55:04.765Z,888.5
2022-10-24T08:56:00.474Z,888.5
2022-10-24T08:57:00.605Z,888.5
2022-10-24T08:58:00.415Z,888.5
2022-10-24T08:59:00.600Z,888.6
2022-10-24T09:00:00.428Z,888.6
2022-10-24T09:01:00.601Z,888.5
2022-10-24T09:02:03.454Z,888.5
2022-10-24T09:03:00.626Z,888.5
2022-10-24T09:04:00.348Z,888.5
2022-10-24T09:05:00.360Z,888.5
2022-10-24T09:06:00.301Z,888.5
2022-10-24T09:07:00.296Z,888.5
2022-10-24T09:08:00.343Z,888.5
2022-10-24T09:09:00.703Z,888.5
2022-10-24T09:10:00.322Z,888.4
2022-10-24T09:11:00.315Z,888.4
2022-10-24T09:12:00.402Z,888.4
2022-10-24T09:13:00.313Z,888.4
2022-10-24T09:14:00.665Z,888.3
2022-10-24T09:15:00.499Z,888.4
2022-10-24T09:16:00.285Z,888.3
2022-10-24T09:17:00.319Z,888.4
2022-10-24T09:18:00.276Z,888.3
2022-10-24T09:19:00.307Z,888.3
2022-10-24T09:20:00.371Z,888.3
2022-10-24T09:21:00.634Z,888.3
2022-10-24T09:22:00.359Z,888.2
2022-10-24T09:23:00.345Z,888.3
2022-10-24T09:24:00.371Z,888.3
2022-10-24T09:25:00.302Z,888.3
2022-10-24T09:26:00.364Z,888.3
2022-10-24T09:27:00.478Z,888.3
2022-10-24T09:28:00.351Z,888.3
2022-10-24T09:29:00.397Z,888.3
2022-10-24T09:30:00.381Z,888.3
2022-10-24T09:31:00.293Z,888.3
2022-10-24T09:32:00.337Z,888.4
2022-10-24T09:33:00.579Z,888.4
2022-10-24T09:34:00.302Z,888.4
2022-10-24T09:35:00.309Z,888.4
2022-10-24T09:36:00.312Z,888.4
2022-10-24T09:37:00.295Z,888.4
2022-10-24T09:38:00.304Z,888.4
2022-10-24T09:39:00.490Z,888.4
2022-10-24T09:40:00.301Z,888.4
2022-10-24T09:41:00.348Z,888.4
2022-10-24T09:42:00.327Z,888.4
2022-10-24T09:43:00.305Z,888.4
2022-10-24T09:44:00.583Z,888.3
2022-10-24T09:45:00.460Z,888.4
2022-10-24T09:46:00.314Z,888.4
2022-10-24T09:47:00.293Z,888.3
2022-10-24T09:48:00.294Z,888.3
2022-10-24T09:49:00.303Z,888.3
2022-10-24T09:50:00.318Z,888.3
2022-10-24T09:51:00.919Z,888.3
2022-10-24T09:52:00.309Z,888.3
2022-10-24T09:53:00.344Z,888.3
2022-10-24T09:54:00.278Z,888.3
2022-10-24T09:55:00.306Z,888.3
2022-10-24T09:56:00.293Z,888.3
2022-10-24T09:57:00.464Z,888.3
2022-10-24T09:58:00.317Z,888.3
2022-10-24T09:59:00.454Z,888.3
2022-10-24T10:00:00.322Z,888.3
2022-10-24T10:01:00.427Z,888.3
2022-10-24T10:02:00.400Z,888.3
2022-10-24T10:03:00.464Z,888.3
2022-10-24T10:04:01.972Z,888.3
2022-10-24T10:05:00.368Z,888.3
2022-10-24T10:06:00.295Z,888.3
2022-10-24T10:07:00.367Z,888.3
2022-10-24T10:08:00.311Z,888.3
2022-10-24T10:09:00.414Z,888.3
2022-10-24T10:10:00.349Z,888.3
2022-10-24T10:11:00.369Z,888.3
2022-10-24T10:12:03.342Z,888.3
2022-10-24T10:13:00.426Z,888.3
2022-10-24T10:14:00.515Z,888.3
2022-10-24T10:15:00.377Z,888.3
2022-10-24T10:16:00.334Z,888.3
2022-10-24T10:17:00.321Z,888.3
2022-10-24T10:18:00.313Z,888.3
2022-10-24T10:19:00.384Z,888.2
2022-10-24T10:20:00.309Z,888.2
2022-10-24T10:21:00.434Z,888.2
2022-10-24T10:22:00.304Z,888.2
2022-10-24T10:23:00.304Z,888.2
2022-10-24T10:24:00.292Z,888.2
2022-10-24T10:25:00.281Z,888.2
2022-10-24T10:26:00.295Z,888.2
2022-10-24T10:27:00.462Z,888.2
2022-10-24T10:28:03.005Z,888.2
2022-10-24T10:29:00.481Z,888.1
2022-10-24T10:30:00.385Z,888.2
2022-10-24T10:31:00.313Z,888.1
2022-10-24T10:32:00.312Z,888.2
2022-10-24T10:33:00.450Z,888.1
2022-10-24T10:34:00.304Z,888.1
2022-10-24T10:35:00.310Z,888.2
2022-10-24T10:36:00.316Z,888.2
2022-10-24T10:37:00.278Z,888.1
2022-10-24T10:38:00.289Z,888.2
2022-10-24T10:39:00.443Z,888.1
2022-10-24T10:40:00.323Z,888.1
2022-10-24T10:41:00.307Z,888.2
2022-10-24T10:42:00.313Z,888.1
2022-10-24T10:43:00.303Z,888.1
2022-10-24T10:44:00.312Z,888.1
2022-10-24T10:45:00.528Z,888.1
2022-10-24T10:46:00.301Z,888.1
2022-10-24T10:47:00.333Z,888.1
2022-10-24T10:48:00.289Z,888.1
2022-10-24T10:49:00.344Z,888.0
2022-10-24T10:50:00.325Z,888.1
2022-10-24T10:51:02.268Z,888.1
2022-10-24T10:52:00.307Z,888.0
2022-10-24T10:53:00.354Z,888.0
2022-10-24T10:54:00.317Z,888.1
2022-10-24T10:55:00.289Z,888.0
2022-10-24T10:56:00.423Z,888.0
2022-10-24T10:57:00.507Z,888.0
2022-10-24T10:58:00.381Z,888.0
2022-10-24T10:59:00.373Z,888.0
2022-10-24T11:00:00.598Z,888.0
2022-10-24T11:01:00.526Z,888.0
2022-10-24T11:02:00.485Z,887.9
2022-10-24T11:03:00.569Z,888.0
2022-10-24T11:04:00.316Z,887.9
2022-10-24T11:05:00.298Z,888.0
2022-10-24T11:06:00.294Z,888.0
2022-10-24T11:08:00.302Z,887.9
2022-10-24T11:09:00.546Z,887.9
2022-10-24T11:10:00.313Z,887.9
2022-10-24T11:11:00.340Z,887.9
2022-10-24T11:12:00.322Z,887.9
2022-10-24T11:13:00.277Z,887.9
2022-10-24T11:14:00.292Z,887.8
2022-10-24T11:15:00.529Z,887.8
2022-10-24T11:16:00.476Z,887.8
2022-10-24T11:17:00.284Z,887.8
2022-10-24T11:18:00.304Z,887.8
2022-10-24T11:19:00.287Z,887.8
2022-10-24T11:20:00.308Z,887.9
2022-10-24T11:21:00.448Z,887.9
2022-10-24T11:22:00.303Z,887.9
2022-10-24T11:23:00.312Z,887.9
2022-10-24T11:24:00.304Z,887.8
2022-10-24T11:25:00.314Z,887.9
2022-10-24T11:26:00.291Z,887.8
2022-10-24T11:27:00.434Z,887.8
2022-10-24T11:28:00.297Z,887.9
2022-10-24T11:29:00.324Z,887.8
2022-10-24T11:30:00.329Z,887.8
2022-10-24T11:31:00.448Z,887.8
2022-10-24T11:32:00.373Z,887.8
2022-10-24T11:33:00.470Z,887.8
2022-10-24T11:34:00.333Z,887.8
2022-10-24T11:35:00.306Z,887.8
2022-10-24T11:36:00.325Z,887.8
2022-10-24T11:37:00.307Z,887.8
2022-10-24T11:38:00.287Z,887.8
2022-10-24T11:39:00.543Z,887.8
2022-10-24T11:40:00.286Z,887.8
2022-10-24T11:41:01.650Z,887.8
2022-10-24T11:42:00.384Z,887.8
2022-10-24T11:43:00.284Z,887.8
2022-10-24T11:44:00.301Z,887.7
2022-10-24T11:45:00.547Z,887.7
2022-10-24T11:46:00.638Z,887.7
2022-10-24T11:47:04.228Z,887.7
2022-10-24T11:48:00.308Z,887.7
2022-10-24T11:49:00.297Z,887.7
2022-10-24T11:50:00.295Z,887.7
2022-10-24T11:51:00.647Z,887.7
2022-10-24T11:52:00.305Z,887.7
2022-10-24T11:53:00.343Z,887.7
2022-10-24T11:54:00.301Z,887.7
2022-10-24T11:55:00.296Z,887.7
2022-10-24T11:56:00.279Z,887.7
2022-10-24T11:57:00.502Z,887.7
2022-10-24T11:58:00.305Z,887.7
2022-10-24T11:59:00.300Z,887.7
2022-10-24T12:00:00.283Z,887.7
2022-10-24T12:01:00.582Z,887.7
2022-10-24T12:04:00.473Z,887.8
2022-10-24T12:05:00.274Z,887.7
2022-10-24T12:06:00.293Z,887.7
2022-10-24T12:07:00.279Z,887.8
2022-10-24T12:08:00.295Z,887.8
2022-10-24T12:09:00.291Z,887.8
2022-10-24T12:10:00.447Z,887.8
2022-10-24T12:14:00.362Z,887.7
2022-10-24T12:15:00.310Z,887.8
2022-10-24T12:16:00.473Z,887.8
2022-10-24T12:17:00.407Z,887.8
2022-10-24T12:18:00.326Z,887.8
2022-10-24T12:19:00.324Z,887.8
2022-10-24T12:20:00.293Z,887.8
2022-10-24T12:21:00.370Z,887.8
2022-10-24T12:22:00.461Z,887.8
2022-10-24T12:23:00.337Z,887.8
2022-10-24T12:24:00.278Z,887.8
2022-10-24T12:25:00.292Z,887.8
2022-10-24T12:26:00.293Z,887.8
2022-10-24T12:27:00.262Z,887.8
2022-10-24T12:28:00.427Z,887.8
2022-10-24T12:29:00.273Z,887.7
2022-10-24T12:30:00.253Z,887.7
2022-10-24T12:31:00.295Z,887.7
2022-10-24T12:32:00.416Z,887.7
2022-10-24T12:33:00.276Z,887.7
2022-10-24T12:34:00.391Z,887.7
2022-10-24T12:35:25.364Z,887.7
2022-10-24T12:36:00.273Z,887.7
2022-10-24T12:37:00.258Z,887.7
2022-10-24T12:38:00.283Z,887.7
2022-10-24T12:39:00.261Z,887.7
2022-10-24T12:40:00.442Z,887.7
2022-10-24T12:41:00.278Z,887.7
2022-10-24T12:42:00.246Z,887.7
2022-10-24T12:43:00.263Z,887.7
2022-10-24T12:44:00.279Z,887.7
2022-10-24T12:45:00.283Z,887.7
2022-10-24T12:46:00.421Z,887.7
2022-10-24T12:47:00.269Z,887.7
2022-10-24T12:48:00.389Z,887.7
2022-10-24T12:49:00.250Z,887.7
2022-10-24T12:50:00.249Z,887.7
2022-10-24T12:51:00.268Z,887.7
2022-10-24T12:52:00.463Z,887.8
2022-10-24T12:53:00.261Z,887.8
2022-10-24T12:54:00.277Z,887.8
2022-10-24T12:55:00.364Z,887.7
2022-10-24T12:56:00.269Z,887.8
2022-10-24T12:57:00.311Z,887.8
2022-10-24T12:58:00.496Z,887.7
2022-10-24T12:59:00.274Z,887.7
2022-10-24T13:00:00.288Z,887.7
2022-10-24T13:01:00.443Z,887.7
2022-10-24T13:02:03.533Z,887.7
2022-10-24T13:03:00.390Z,887.7
2022-10-24T13:04:00.578Z,887.7
2022-10-24T13:05:00.328Z,887.6
2022-10-24T13:06:00.403Z,887.7